sensor_id;sensor_type;location;lat;lon;timestamp;P1;durP1;ratioP1;P2;durP2;ratioP2
35312;SDS011;21425;50.454;30.466;2023-09-18T00:01:39;11.65;;;6.97;;
35312;SDS011;21425;50.454;30.466;2023-09-18T00:04:05;9.52;;;6.22;;
35312;SDS011;21425;50.454;30.466;2023-09-18T00:06:32;10.18;;;6.75;;
35312;SDS011;21425;50.454;30.466;2023-09-18T00:08:58;15.30;;;7.38;;
35312;SDS011;21425;50.454;30.466;2023-09-18T00:11:23;11.30;;;6.40;;
35312;SDS011;21425;50.454;30.466;2023-09-18T00:13:49;9.63;;;6.07;;
35312;SDS011;21425;50.454;30.466;2023-09-18T00:16:15;10.27;;;6.80;;
35312;SDS011;21425;50.454;30.466;2023-09-18T00:18:41;8.98;;;6.45;;
35312;SDS011;21425;50.454;30.466;2023-09-18T00:21:07;13.93;;;6.65;;
35312;SDS011;21425;50.454;30.466;2023-09-18T00:23:35;9.65;;;6.75;;
35312;SDS011;21425;50.454;30.466;2023-09-18T00:26:04;14.98;;;7.22;;
35312;SDS011;21425;50.454;30.466;2023-09-18T00:28:29;14.25;;;7.35;;
35312;SDS011;21425;50.454;30.466;2023-09-18T00:30:55;12.50;;;7.28;;
35312;SDS011;21425;50.454;30.466;2023-09-18T00:33:21;10.27;;;7.07;;
35312;SDS011;21425;50.454;30.466;2023-09-18T00:35:47;14.15;;;6.80;;
35312;SDS011;21425;50.454;30.466;2023-09-18T00:38:14;11.23;;;6.95;;
35312;SDS011;21425;50.454;30.466;2023-09-18T00:40:40;13.15;;;7.70;;
35312;SDS011;21425;50.454;30.466;2023-09-18T00:43:06;13.13;;;7.30;;
35312;SDS011;21425;50.454;30.466;2023-09-18T00:45:32;10.05;;;6.68;;
35312;SDS011;21425;50.454;30.466;2023-09-18T00:47:59;10.45;;;6.28;;
35312;SDS011;21425;50.454;30.466;2023-09-18T00:50:25;11.85;;;7.35;;
35312;SDS011;21425;50.454;30.466;2023-09-18T00:52:51;10.00;;;6.45;;
35312;SDS011;21425;50.454;30.466;2023-09-18T00:55:17;13.32;;;6.85;;
35312;SDS011;21425;50.454;30.466;2023-09-18T00:57:43;8.95;;;6.40;;
35312;SDS011;21425;50.454;30.466;2023-09-18T01:00:10;11.68;;;6.78;;
35312;SDS011;21425;50.454;30.466;2023-09-18T01:02:36;11.90;;;7.20;;
35312;SDS011;21425;50.454;30.466;2023-09-18T01:05:03;12.32;;;6.57;;
35312;SDS011;21425;50.454;30.466;2023-09-18T01:07:29;12.40;;;7.00;;
35312;SDS011;21425;50.454;30.466;2023-09-18T01:09:55;14.27;;;7.03;;
35312;SDS011;21425;50.454;30.466;2023-09-18T01:12:30;10.90;;;6.95;;
35312;SDS011;21425;50.454;30.466;2023-09-18T01:15:02;11.05;;;7.05;;
35312;SDS011;21425;50.454;30.466;2023-09-18T01:17:30;20.67;;;12.98;;
35312;SDS011;21425;50.454;30.466;2023-09-18T01:20:01;12.60;;;8.10;;
35312;SDS011;21425;50.454;30.466;2023-09-18T01:22:31;12.45;;;6.88;;
35312;SDS011;21425;50.454;30.466;2023-09-18T01:24:57;10.43;;;6.55;;
35312;SDS011;21425;50.454;30.466;2023-09-18T01:27:23;13.43;;;6.93;;
35312;SDS011;21425;50.454;30.466;2023-09-18T01:29:49;10.52;;;6.53;;
35312;SDS011;21425;50.454;30.466;2023-09-18T01:32:16;14.23;;;6.90;;
35312;SDS011;21425;50.454;30.466;2023-09-18T01:34:42;15.82;;;6.80;;
35312;SDS011;21425;50.454;30.466;2023-09-18T01:37:15;11.23;;;6.60;;
35312;SDS011;21425;50.454;30.466;2023-09-18T01:39:42;10.68;;;6.28;;
35312;SDS011;21425;50.454;30.466;2023-09-18T01:42:09;11.27;;;6.90;;
35312;SDS011;21425;50.454;30.466;2023-09-18T01:44:36;10.60;;;6.55;;
35312;SDS011;21425;50.454;30.466;2023-09-18T01:47:09;11.43;;;6.82;;
35312;SDS011;21425;50.454;30.466;2023-09-18T01:49:43;13.88;;;7.65;;
35312;SDS011;21425;50.454;30.466;2023-09-18T01:52:09;18.05;;;11.15;;
35312;SDS011;21425;50.454;30.466;2023-09-18T01:54:35;12.45;;;6.45;;
35312;SDS011;21425;50.454;30.466;2023-09-18T01:57:02;12.30;;;7.00;;
35312;SDS011;21425;50.454;30.466;2023-09-18T01:59:28;11.95;;;7.10;;
35312;SDS011;21425;50.454;30.466;2023-09-18T02:01:54;12.57;;;7.10;;
35312;SDS011;21425;50.454;30.466;2023-09-18T02:04:20;9.93;;;6.22;;
35312;SDS011;21425;50.454;30.466;2023-09-18T02:06:46;13.13;;;6.57;;
35312;SDS011;21425;50.454;30.466;2023-09-18T02:09:13;14.68;;;7.93;;
35312;SDS011;21425;50.454;30.466;2023-09-18T02:11:40;12.90;;;6.78;;
35312;SDS011;21425;50.454;30.466;2023-09-18T02:14:08;12.85;;;7.65;;
35312;SDS011;21425;50.454;30.466;2023-09-18T02:16:34;13.25;;;7.05;;
35312;SDS011;21425;50.454;30.466;2023-09-18T02:19:01;10.27;;;6.75;;
35312;SDS011;21425;50.454;30.466;2023-09-18T02:21:27;13.77;;;6.57;;
35312;SDS011;21425;50.454;30.466;2023-09-18T02:23:53;10.23;;;6.05;;
35312;SDS011;21425;50.454;30.466;2023-09-18T02:26:20;14.88;;;7.28;;
35312;SDS011;21425;50.454;30.466;2023-09-18T02:28:47;11.55;;;6.82;;
35312;SDS011;21425;50.454;30.466;2023-09-18T02:31:13;11.23;;;7.25;;
35312;SDS011;21425;50.454;30.466;2023-09-18T02:33:39;9.40;;;6.18;;
35312;SDS011;21425;50.454;30.466;2023-09-18T02:36:05;14.05;;;6.57;;
35312;SDS011;21425;50.454;30.466;2023-09-18T02:38:32;16.60;;;7.68;;
35312;SDS011;21425;50.454;30.466;2023-09-18T02:40:58;14.02;;;7.30;;
35312;SDS011;21425;50.454;30.466;2023-09-18T02:43:24;14.23;;;7.53;;
35312;SDS011;21425;50.454;30.466;2023-09-18T02:45:50;10.55;;;7.25;;
35312;SDS011;21425;50.454;30.466;2023-09-18T02:48:16;12.38;;;6.68;;
35312;SDS011;21425;50.454;30.466;2023-09-18T02:50:42;11.50;;;6.70;;
35312;SDS011;21425;50.454;30.466;2023-09-18T02:53:12;12.85;;;7.32;;
35312;SDS011;21425;50.454;30.466;2023-09-18T02:55:46;14.57;;;7.53;;
35312;SDS011;21425;50.454;30.466;2023-09-18T02:58:13;13.95;;;7.03;;
35312;SDS011;21425;50.454;30.466;2023-09-18T03:00:45;10.52;;;7.18;;
35312;SDS011;21425;50.454;30.466;2023-09-18T03:03:12;14.73;;;7.20;;
35312;SDS011;21425;50.454;30.466;2023-09-18T03:05:39;14.38;;;7.60;;
35312;SDS011;21425;50.454;30.466;2023-09-18T03:08:05;12.65;;;6.90;;
35312;SDS011;21425;50.454;30.466;2023-09-18T03:10:34;13.18;;;6.90;;
35312;SDS011;21425;50.454;30.466;2023-09-18T03:13:09;12.05;;;7.60;;
35312;SDS011;21425;50.454;30.466;2023-09-18T03:15:36;17.33;;;7.07;;
35312;SDS011;21425;50.454;30.466;2023-09-18T03:18:02;13.30;;;7.20;;
35312;SDS011;21425;50.454;30.466;2023-09-18T03:20:29;16.45;;;7.47;;
35312;SDS011;21425;50.454;30.466;2023-09-18T03:22:56;13.07;;;7.40;;
35312;SDS011;21425;50.454;30.466;2023-09-18T03:25:23;13.60;;;7.25;;
35312;SDS011;21425;50.454;30.466;2023-09-18T03:27:50;14.77;;;7.22;;
35312;SDS011;21425;50.454;30.466;2023-09-18T03:30:17;16.27;;;7.35;;
35312;SDS011;21425;50.454;30.466;2023-09-18T03:32:43;10.48;;;7.20;;
35312;SDS011;21425;50.454;30.466;2023-09-18T03:35:09;13.88;;;8.57;;
35312;SDS011;21425;50.454;30.466;2023-09-18T03:37:42;12.77;;;7.78;;
35312;SDS011;21425;50.454;30.466;2023-09-18T03:40:08;15.23;;;7.55;;
35312;SDS011;21425;50.454;30.466;2023-09-18T03:42:35;13.00;;;7.25;;
35312;SDS011;21425;50.454;30.466;2023-09-18T03:45:01;15.60;;;7.10;;
35312;SDS011;21425;50.454;30.466;2023-09-18T03:47:28;9.98;;;7.03;;
35312;SDS011;21425;50.454;30.466;2023-09-18T03:49:53;14.90;;;7.72;;
35312;SDS011;21425;50.454;30.466;2023-09-18T03:52:19;13.05;;;7.90;;
35312;SDS011;21425;50.454;30.466;2023-09-18T03:54:44;11.18;;;7.30;;
35312;SDS011;21425;50.454;30.466;2023-09-18T03:57:10;14.57;;;7.95;;
35312;SDS011;21425;50.454;30.466;2023-09-18T03:59:35;14.65;;;7.57;;
35312;SDS011;21425;50.454;30.466;2023-09-18T04:02:01;11.80;;;7.15;;
35312;SDS011;21425;50.454;30.466;2023-09-18T04:04:28;13.95;;;7.25;;
35312;SDS011;21425;50.454;30.466;2023-09-18T04:06:54;11.30;;;7.15;;
35312;SDS011;21425;50.454;30.466;2023-09-18T04:09:20;11.70;;;7.45;;
35312;SDS011;21425;50.454;30.466;2023-09-18T04:11:46;12.05;;;7.78;;
35312;SDS011;21425;50.454;30.466;2023-09-18T04:14:12;14.25;;;8.38;;
35312;SDS011;21425;50.454;30.466;2023-09-18T04:16:37;11.88;;;7.60;;
35312;SDS011;21425;50.454;30.466;2023-09-18T04:19:05;19.25;;;7.97;;
35312;SDS011;21425;50.454;30.466;2023-09-18T04:21:31;12.70;;;8.45;;
35312;SDS011;21425;50.454;30.466;2023-09-18T04:23:56;12.05;;;8.13;;
35312;SDS011;21425;50.454;30.466;2023-09-18T04:26:24;16.83;;;8.38;;
35312;SDS011;21425;50.454;30.466;2023-09-18T04:28:54;13.60;;;7.90;;
35312;SDS011;21425;50.454;30.466;2023-09-18T04:31:20;16.45;;;8.27;;
35312;SDS011;21425;50.454;30.466;2023-09-18T04:33:46;15.80;;;7.65;;
35312;SDS011;21425;50.454;30.466;2023-09-18T04:36:12;13.20;;;7.15;;
35312;SDS011;21425;50.454;30.466;2023-09-18T04:38:38;15.13;;;8.55;;
35312;SDS011;21425;50.454;30.466;2023-09-18T04:41:03;15.55;;;7.72;;
35312;SDS011;21425;50.454;30.466;2023-09-18T04:43:29;11.40;;;7.40;;
35312;SDS011;21425;50.454;30.466;2023-09-18T04:45:55;15.65;;;8.55;;
35312;SDS011;21425;50.454;30.466;2023-09-18T04:48:21;11.63;;;7.38;;
35312;SDS011;21425;50.454;30.466;2023-09-18T04:50:48;13.93;;;7.32;;
35312;SDS011;21425;50.454;30.466;2023-09-18T04:53:14;16.10;;;8.07;;
35312;SDS011;21425;50.454;30.466;2023-09-18T04:55:40;13.75;;;8.48;;
35312;SDS011;21425;50.454;30.466;2023-09-18T04:58:06;11.50;;;8.00;;
35312;SDS011;21425;50.454;30.466;2023-09-18T05:00:32;12.45;;;7.93;;
35312;SDS011;21425;50.454;30.466;2023-09-18T05:02:58;13.52;;;8.15;;
35312;SDS011;21425;50.454;30.466;2023-09-18T05:05:26;15.48;;;7.78;;
35312;SDS011;21425;50.454;30.466;2023-09-18T05:07:52;13.93;;;8.05;;
35312;SDS011;21425;50.454;30.466;2023-09-18T05:10:18;14.98;;;7.68;;
35312;SDS011;21425;50.454;30.466;2023-09-18T05:12:44;12.02;;;8.02;;
35312;SDS011;21425;50.454;30.466;2023-09-18T05:15:10;18.77;;;8.48;;
35312;SDS011;21425;50.454;30.466;2023-09-18T05:17:45;17.77;;;8.20;;
35312;SDS011;21425;50.454;30.466;2023-09-18T05:20:13;18.00;;;8.45;;
35312;SDS011;21425;50.454;30.466;2023-09-18T05:22:41;13.07;;;7.78;;
35312;SDS011;21425;50.454;30.466;2023-09-18T05:25:11;18.42;;;7.72;;
35312;SDS011;21425;50.454;30.466;2023-09-18T05:27:39;15.43;;;7.78;;
35312;SDS011;21425;50.454;30.466;2023-09-18T05:30:09;17.77;;;8.13;;
35312;SDS011;21425;50.454;30.466;2023-09-18T05:32:35;17.50;;;8.10;;
35312;SDS011;21425;50.454;30.466;2023-09-18T05:35:01;15.35;;;8.23;;
35312;SDS011;21425;50.454;30.466;2023-09-18T05:37:31;17.00;;;8.18;;
35312;SDS011;21425;50.454;30.466;2023-09-18T05:39:57;15.45;;;7.78;;
35312;SDS011;21425;50.454;30.466;2023-09-18T05:42:23;12.68;;;7.78;;
35312;SDS011;21425;50.454;30.466;2023-09-18T05:44:48;11.50;;;7.18;;
35312;SDS011;21425;50.454;30.466;2023-09-18T05:47:14;17.27;;;8.07;;
35312;SDS011;21425;50.454;30.466;2023-09-18T05:49:40;15.55;;;7.80;;
35312;SDS011;21425;50.454;30.466;2023-09-18T05:52:06;14.82;;;7.28;;
35312;SDS011;21425;50.454;30.466;2023-09-18T05:54:32;14.38;;;7.45;;
35312;SDS011;21425;50.454;30.466;2023-09-18T05:56:57;17.17;;;7.55;;
35312;SDS011;21425;50.454;30.466;2023-09-18T05:59:23;15.48;;;7.80;;
35312;SDS011;21425;50.454;30.466;2023-09-18T06:01:49;10.95;;;7.55;;
35312;SDS011;21425;50.454;30.466;2023-09-18T06:04:16;15.60;;;8.18;;
35312;SDS011;21425;50.454;30.466;2023-09-18T06:06:42;14.30;;;7.30;;
35312;SDS011;21425;50.454;30.466;2023-09-18T06:09:08;10.80;;;6.20;;
35312;SDS011;21425;50.454;30.466;2023-09-18T06:11:33;15.10;;;6.90;;
35312;SDS011;21425;50.454;30.466;2023-09-18T06:13:59;9.85;;;6.35;;
35312;SDS011;21425;50.454;30.466;2023-09-18T06:16:24;15.02;;;7.10;;
35312;SDS011;21425;50.454;30.466;2023-09-18T06:18:50;12.35;;;6.63;;
35312;SDS011;21425;50.454;30.466;2023-09-18T06:21:17;14.55;;;6.45;;
35312;SDS011;21425;50.454;30.466;2023-09-18T06:23:42;16.92;;;6.63;;
35312;SDS011;21425;50.454;30.466;2023-09-18T06:26:08;10.02;;;6.75;;
35312;SDS011;21425;50.454;30.466;2023-09-18T06:28:35;13.68;;;6.72;;
35312;SDS011;21425;50.454;30.466;2023-09-18T06:31:00;15.52;;;6.30;;
35312;SDS011;21425;50.454;30.466;2023-09-18T06:33:26;19.13;;;7.57;;
35312;SDS011;21425;50.454;30.466;2023-09-18T06:35:52;10.05;;;6.22;;
35312;SDS011;21425;50.454;30.466;2023-09-18T06:38:19;18.25;;;7.30;;
35312;SDS011;21425;50.454;30.466;2023-09-18T06:40:46;12.00;;;6.75;;
35312;SDS011;21425;50.454;30.466;2023-09-18T06:43:12;16.23;;;6.63;;
35312;SDS011;21425;50.454;30.466;2023-09-18T06:45:38;13.05;;;6.03;;
35312;SDS011;21425;50.454;30.466;2023-09-18T06:48:04;12.80;;;6.88;;
35312;SDS011;21425;50.454;30.466;2023-09-18T06:50:30;14.57;;;6.38;;
35312;SDS011;21425;50.454;30.466;2023-09-18T06:52:56;13.93;;;6.65;;
35312;SDS011;21425;50.454;30.466;2023-09-18T06:55:21;14.48;;;6.78;;
35312;SDS011;21425;50.454;30.466;2023-09-18T06:57:47;11.82;;;6.43;;
35312;SDS011;21425;50.454;30.466;2023-09-18T07:00:17;12.65;;;6.45;;
35312;SDS011;21425;50.454;30.466;2023-09-18T07:02:45;13.23;;;6.75;;
35312;SDS011;21425;50.454;30.466;2023-09-18T07:05:12;13.88;;;6.47;;
35312;SDS011;21425;50.454;30.466;2023-09-18T07:07:37;17.67;;;6.97;;
35312;SDS011;21425;50.454;30.466;2023-09-18T07:10:03;9.70;;;5.97;;
35312;SDS011;21425;50.454;30.466;2023-09-18T07:12:29;12.50;;;6.03;;
35312;SDS011;21425;50.454;30.466;2023-09-18T07:14:56;16.33;;;6.75;;
35312;SDS011;21425;50.454;30.466;2023-09-18T07:17:21;12.95;;;7.00;;
35312;SDS011;21425;50.454;30.466;2023-09-18T07:19:47;12.32;;;6.13;;
35312;SDS011;21425;50.454;30.466;2023-09-18T07:22:14;13.05;;;6.22;;
35312;SDS011;21425;50.454;30.466;2023-09-18T07:24:40;11.70;;;6.57;;
35312;SDS011;21425;50.454;30.466;2023-09-18T07:27:07;13.32;;;7.13;;
35312;SDS011;21425;50.454;30.466;2023-09-18T07:29:33;16.73;;;6.45;;
35312;SDS011;21425;50.454;30.466;2023-09-18T07:32:00;13.27;;;6.47;;
35312;SDS011;21425;50.454;30.466;2023-09-18T07:34:26;12.93;;;5.93;;
35312;SDS011;21425;50.454;30.466;2023-09-18T07:36:53;11.73;;;5.65;;
35312;SDS011;21425;50.454;30.466;2023-09-18T07:39:20;14.02;;;6.35;;
35312;SDS011;21425;50.454;30.466;2023-09-18T07:41:46;9.93;;;5.55;;
35312;SDS011;21425;50.454;30.466;2023-09-18T07:44:13;10.25;;;5.65;;
35312;SDS011;21425;50.454;30.466;2023-09-18T07:46:39;11.35;;;5.50;;
35312;SDS011;21425;50.454;30.466;2023-09-18T07:49:04;10.35;;;5.50;;
35312;SDS011;21425;50.454;30.466;2023-09-18T07:51:30;18.67;;;6.57;;
35312;SDS011;21425;50.454;30.466;2023-09-18T07:53:55;15.07;;;6.00;;
35312;SDS011;21425;50.454;30.466;2023-09-18T07:56:21;8.13;;;5.57;;
35312;SDS011;21425;50.454;30.466;2023-09-18T07:58:47;16.33;;;6.55;;
35312;SDS011;21425;50.454;30.466;2023-09-18T08:01:13;9.68;;;5.22;;
35312;SDS011;21425;50.454;30.466;2023-09-18T08:03:41;9.23;;;5.35;;
35312;SDS011;21425;50.454;30.466;2023-09-18T08:06:07;13.05;;;5.80;;
35312;SDS011;21425;50.454;30.466;2023-09-18T08:08:32;11.25;;;5.57;;
35312;SDS011;21425;50.454;30.466;2023-09-18T08:11:00;10.10;;;5.53;;
35312;SDS011;21425;50.454;30.466;2023-09-18T08:13:33;13.75;;;5.70;;
35312;SDS011;21425;50.454;30.466;2023-09-18T08:15:58;12.95;;;5.20;;
35312;SDS011;21425;50.454;30.466;2023-09-18T08:18:24;12.70;;;5.60;;
35312;SDS011;21425;50.454;30.466;2023-09-18T08:20:51;10.98;;;4.72;;
35312;SDS011;21425;50.454;30.466;2023-09-18T08:23:19;11.82;;;5.75;;
35312;SDS011;21425;50.454;30.466;2023-09-18T08:25:45;17.30;;;5.97;;
35312;SDS011;21425;50.454;30.466;2023-09-18T08:28:12;8.57;;;5.53;;
35312;SDS011;21425;50.454;30.466;2023-09-18T08:30:40;10.43;;;5.10;;
35312;SDS011;21425;50.454;30.466;2023-09-18T08:33:09;10.23;;;5.40;;
35312;SDS011;21425;50.454;30.466;2023-09-18T08:35:36;13.40;;;5.40;;
35312;SDS011;21425;50.454;30.466;2023-09-18T08:38:02;13.27;;;5.68;;
35312;SDS011;21425;50.454;30.466;2023-09-18T08:40:28;8.90;;;5.63;;
35312;SDS011;21425;50.454;30.466;2023-09-18T08:42:55;9.68;;;5.22;;
35312;SDS011;21425;50.454;30.466;2023-09-18T08:45:23;17.73;;;7.43;;
35312;SDS011;21425;50.454;30.466;2023-09-18T08:47:52;12.20;;;6.03;;
35312;SDS011;21425;50.454;30.466;2023-09-18T08:50:19;9.43;;;5.68;;
35312;SDS011;21425;50.454;30.466;2023-09-18T08:52:46;13.38;;;5.45;;
35312;SDS011;21425;50.454;30.466;2023-09-18T08:55:13;9.73;;;5.80;;
35312;SDS011;21425;50.454;30.466;2023-09-18T08:57:39;11.13;;;6.22;;
35312;SDS011;21425;50.454;30.466;2023-09-18T09:00:08;12.55;;;5.63;;
35312;SDS011;21425;50.454;30.466;2023-09-18T09:02:36;12.30;;;5.45;;
35312;SDS011;21425;50.454;30.466;2023-09-18T09:05:03;9.77;;;5.30;;
35312;SDS011;21425;50.454;30.466;2023-09-18T09:07:29;8.35;;;5.18;;
35312;SDS011;21425;50.454;30.466;2023-09-18T09:09:56;10.77;;;5.25;;
35312;SDS011;21425;50.454;30.466;2023-09-18T09:15:18;10.68;;;5.75;;
35312;SDS011;21425;50.454;30.466;2023-09-18T09:17:45;11.13;;;5.70;;
35312;SDS011;21425;50.454;30.466;2023-09-18T09:20:12;8.10;;;5.28;;
35312;SDS011;21425;50.454;30.466;2023-09-18T09:22:41;8.52;;;5.50;;
35312;SDS011;21425;50.454;30.466;2023-09-18T09:27:46;10.60;;;5.32;;
35312;SDS011;21425;50.454;30.466;2023-09-18T09:30:18;8.98;;;5.50;;
35312;SDS011;21425;50.454;30.466;2023-09-18T09:32:49;6.95;;;4.78;;
35312;SDS011;21425;50.454;30.466;2023-09-18T09:35:29;8.13;;;4.60;;
35312;SDS011;21425;50.454;30.466;2023-09-18T09:38:08;6.63;;;4.27;;
35312;SDS011;21425;50.454;30.466;2023-09-18T09:40:37;8.20;;;5.78;;
35312;SDS011;21425;50.454;30.466;2023-09-18T09:43:05;9.25;;;6.32;;
35312;SDS011;21425;50.454;30.466;2023-09-18T09:45:39;12.75;;;5.53;;
35312;SDS011;21425;50.454;30.466;2023-09-18T09:48:06;8.27;;;5.00;;
35312;SDS011;21425;50.454;30.466;2023-09-18T09:50:33;9.20;;;4.70;;
35312;SDS011;21425;50.454;30.466;2023-09-18T09:53:20;7.40;;;4.90;;
35312;SDS011;21425;50.454;30.466;2023-09-18T09:56:06;8.80;;;5.28;;
35312;SDS011;21425;50.454;30.466;2023-09-18T09:58:31;6.97;;;5.18;;
35312;SDS011;21425;50.454;30.466;2023-09-18T10:00:57;7.70;;;4.78;;
35312;SDS011;21425;50.454;30.466;2023-09-18T10:03:24;10.50;;;5.40;;
35312;SDS011;21425;50.454;30.466;2023-09-18T10:05:51;10.10;;;5.18;;
35312;SDS011;21425;50.454;30.466;2023-09-18T10:08:23;8.75;;;6.13;;
35312;SDS011;21425;50.454;30.466;2023-09-18T10:10:54;8.82;;;5.10;;
35312;SDS011;21425;50.454;30.466;2023-09-18T10:13:41;8.80;;;4.47;;
35312;SDS011;21425;50.454;30.466;2023-09-18T10:16:25;9.75;;;4.70;;
35312;SDS011;21425;50.454;30.466;2023-09-18T10:24:20;7.07;;;4.90;;
35312;SDS011;21425;50.454;30.466;2023-09-18T10:26:56;5.88;;;4.28;;
35312;SDS011;21425;50.454;30.466;2023-09-18T10:29:27;9.30;;;4.70;;
35312;SDS011;21425;50.454;30.466;2023-09-18T10:31:54;7.68;;;4.93;;
35312;SDS011;21425;50.454;30.466;2023-09-18T10:34:22;10.95;;;4.95;;
35312;SDS011;21425;50.454;30.466;2023-09-18T10:36:49;9.48;;;4.35;;
35312;SDS011;21425;50.454;30.466;2023-09-18T10:39:16;8.25;;;4.55;;
35312;SDS011;21425;50.454;30.466;2023-09-18T10:41:51;6.70;;;4.68;;
35312;SDS011;21425;50.454;30.466;2023-09-18T10:44:18;8.02;;;4.32;;
35312;SDS011;21425;50.454;30.466;2023-09-18T10:46:45;6.60;;;4.88;;
35312;SDS011;21425;50.454;30.466;2023-09-18T10:49:11;11.43;;;4.82;;
35312;SDS011;21425;50.454;30.466;2023-09-18T10:51:37;7.47;;;4.45;;
35312;SDS011;21425;50.454;30.466;2023-09-18T10:54:07;9.15;;;4.85;;
35312;SDS011;21425;50.454;30.466;2023-09-18T10:56:33;8.05;;;4.68;;
35312;SDS011;21425;50.454;30.466;2023-09-18T10:59:00;7.82;;;4.72;;
35312;SDS011;21425;50.454;30.466;2023-09-18T11:01:27;6.90;;;4.80;;
35312;SDS011;21425;50.454;30.466;2023-09-18T11:03:57;6.18;;;4.20;;
35312;SDS011;21425;50.454;30.466;2023-09-18T11:06:24;8.80;;;4.57;;
35312;SDS011;21425;50.454;30.466;2023-09-18T11:08:55;8.10;;;5.22;;
35312;SDS011;21425;50.454;30.466;2023-09-18T11:11:29;6.85;;;4.72;;
35312;SDS011;21425;50.454;30.466;2023-09-18T11:13:57;8.55;;;4.80;;
35312;SDS011;21425;50.454;30.466;2023-09-18T11:19:38;8.18;;;4.07;;
35312;SDS011;21425;50.454;30.466;2023-09-18T11:21:42;7.07;;;3.70;;
35312;SDS011;21425;50.454;30.466;2023-09-18T11:24:15;5.50;;;3.80;;
35312;SDS011;21425;50.454;30.466;2023-09-18T11:26:44;5.63;;;4.30;;
35312;SDS011;21425;50.454;30.466;2023-09-18T11:29:13;6.72;;;4.03;;
35312;SDS011;21425;50.454;30.466;2023-09-18T11:31:48;6.43;;;4.00;;
35312;SDS011;21425;50.454;30.466;2023-09-18T11:36:53;6.22;;;4.00;;
35312;SDS011;21425;50.454;30.466;2023-09-18T11:39:38;7.18;;;3.90;;
35312;SDS011;21425;50.454;30.466;2023-09-18T11:42:17;9.13;;;4.18;;
35312;SDS011;21425;50.454;30.466;2023-09-18T11:44:44;5.50;;;3.90;;
35312;SDS011;21425;50.454;30.466;2023-09-18T11:47:16;7.07;;;4.88;;
35312;SDS011;21425;50.454;30.466;2023-09-18T11:50:17;8.52;;;4.40;;
35312;SDS011;21425;50.454;30.466;2023-09-18T11:52:36;6.88;;;4.25;;
35312;SDS011;21425;50.454;30.466;2023-09-18T11:55:02;7.72;;;4.18;;
35312;SDS011;21425;50.454;30.466;2023-09-18T11:57:28;7.18;;;4.25;;
35312;SDS011;21425;50.454;30.466;2023-09-18T11:59:55;8.45;;;4.22;;
35312;SDS011;21425;50.454;30.466;2023-09-18T12:02:25;6.45;;;4.28;;
35312;SDS011;21425;50.454;30.466;2023-09-18T12:04:53;8.35;;;4.30;;
35312;SDS011;21425;50.454;30.466;2023-09-18T12:07:19;9.85;;;3.95;;
35312;SDS011;21425;50.454;30.466;2023-09-18T12:09:45;8.98;;;4.70;;
35312;SDS011;21425;50.454;30.466;2023-09-18T12:12:11;10.85;;;4.50;;
35312;SDS011;21425;50.454;30.466;2023-09-18T12:14:39;8.63;;;3.85;;
35312;SDS011;21425;50.454;30.466;2023-09-18T12:17:07;10.02;;;4.35;;
35312;SDS011;21425;50.454;30.466;2023-09-18T12:19:33;9.07;;;4.28;;
35312;SDS011;21425;50.454;30.466;2023-09-18T12:22:00;7.00;;;4.30;;
35312;SDS011;21425;50.454;30.466;2023-09-18T12:24:27;7.53;;;4.47;;
35312;SDS011;21425;50.454;30.466;2023-09-18T12:26:53;9.85;;;4.53;;
35312;SDS011;21425;50.454;30.466;2023-09-18T12:29:20;7.30;;;4.53;;
35312;SDS011;21425;50.454;30.466;2023-09-18T12:31:46;6.45;;;4.30;;
35312;SDS011;21425;50.454;30.466;2023-09-18T12:34:15;8.65;;;4.85;;
35312;SDS011;21425;50.454;30.466;2023-09-18T12:36:45;7.63;;;4.07;;
35312;SDS011;21425;50.454;30.466;2023-09-18T12:39:12;8.50;;;4.65;;
35312;SDS011;21425;50.454;30.466;2023-09-18T12:41:41;6.88;;;4.20;;
35312;SDS011;21425;50.454;30.466;2023-09-18T12:44:10;6.15;;;3.95;;
35312;SDS011;21425;50.454;30.466;2023-09-18T12:46:37;7.07;;;4.15;;
35312;SDS011;21425;50.454;30.466;2023-09-18T12:49:18;5.65;;;4.13;;
35312;SDS011;21425;50.454;30.466;2023-09-18T12:51:58;5.97;;;4.78;;
35312;SDS011;21425;50.454;30.466;2023-09-18T12:54:41;8.02;;;4.28;;
35312;SDS011;21425;50.454;30.466;2023-09-18T12:57:09;5.25;;;4.10;;
35312;SDS011;21425;50.454;30.466;2023-09-18T12:59:36;9.25;;;4.28;;
35312;SDS011;21425;50.454;30.466;2023-09-18T13:02:03;4.82;;;4.03;;
35312;SDS011;21425;50.454;30.466;2023-09-18T13:04:36;5.63;;;3.63;;
35312;SDS011;21425;50.454;30.466;2023-09-18T13:07:03;8.35;;;3.80;;
35312;SDS011;21425;50.454;30.466;2023-09-18T13:09:31;10.23;;;4.40;;
35312;SDS011;21425;50.454;30.466;2023-09-18T13:11:57;6.18;;;3.35;;
35312;SDS011;21425;50.454;30.466;2023-09-18T13:14:23;5.78;;;3.75;;
35312;SDS011;21425;50.454;30.466;2023-09-18T13:16:50;4.70;;;3.75;;
35312;SDS011;21425;50.454;30.466;2023-09-18T13:19:17;6.13;;;3.67;;
35312;SDS011;21425;50.454;30.466;2023-09-18T13:21:49;9.40;;;4.40;;
35312;SDS011;21425;50.454;30.466;2023-09-18T13:24:27;10.53;;;4.07;;
35312;SDS011;21425;50.454;30.466;2023-09-18T13:26:55;5.75;;;3.88;;
35312;SDS011;21425;50.454;30.466;2023-09-18T13:29:21;9.48;;;4.60;;
35312;SDS011;21425;50.454;30.466;2023-09-18T13:31:48;5.90;;;4.28;;
35312;SDS011;21425;50.454;30.466;2023-09-18T13:34:15;5.28;;;4.18;;
35312;SDS011;21425;50.454;30.466;2023-09-18T13:36:43;4.63;;;3.70;;
35312;SDS011;21425;50.454;30.466;2023-09-18T13:39:09;7.65;;;4.50;;
35312;SDS011;21425;50.454;30.466;2023-09-18T13:41:35;6.43;;;4.68;;
35312;SDS011;21425;50.454;30.466;2023-09-18T13:44:01;5.18;;;4.10;;
35312;SDS011;21425;50.454;30.466;2023-09-18T13:46:27;5.28;;;4.15;;
35312;SDS011;21425;50.454;30.466;2023-09-18T13:48:53;6.13;;;3.90;;
35312;SDS011;21425;50.454;30.466;2023-09-18T13:51:19;8.57;;;4.00;;
35312;SDS011;21425;50.454;30.466;2023-09-18T13:53:44;9.20;;;4.00;;
35312;SDS011;21425;50.454;30.466;2023-09-18T13:56:12;7.07;;;3.72;;
35312;SDS011;21425;50.454;30.466;2023-09-18T13:58:37;10.15;;;5.22;;
35312;SDS011;21425;50.454;30.466;2023-09-18T14:01:06;11.18;;;5.03;;
35312;SDS011;21425;50.454;30.466;2023-09-18T14:03:32;10.65;;;6.90;;
35312;SDS011;21425;50.454;30.466;2023-09-18T14:05:58;20.27;;;12.00;;
35312;SDS011;21425;50.454;30.466;2023-09-18T14:08:23;8.27;;;5.40;;
35312;SDS011;21425;50.454;30.466;2023-09-18T14:10:49;19.02;;;11.68;;
35312;SDS011;21425;50.454;30.466;2023-09-18T14:13:15;8.07;;;4.57;;
35312;SDS011;21425;50.454;30.466;2023-09-18T14:15:42;20.40;;;11.45;;
35312;SDS011;21425;50.454;30.466;2023-09-18T14:18:08;6.40;;;3.80;;
35312;SDS011;21425;50.454;30.466;2023-09-18T14:20:34;8.00;;;5.53;;
35312;SDS011;21425;50.454;30.466;2023-09-18T14:23:00;6.63;;;4.15;;
35312;SDS011;21425;50.454;30.466;2023-09-18T14:25:25;9.50;;;4.50;;
35312;SDS011;21425;50.454;30.466;2023-09-18T14:27:52;8.73;;;3.88;;
35312;SDS011;21425;50.454;30.466;2023-09-18T14:30:18;6.78;;;4.75;;
35312;SDS011;21425;50.454;30.466;2023-09-18T14:32:44;5.50;;;3.80;;
35312;SDS011;21425;50.454;30.466;2023-09-18T14:35:10;8.10;;;4.30;;
35312;SDS011;21425;50.454;30.466;2023-09-18T14:37:36;6.28;;;4.07;;
35312;SDS011;21425;50.454;30.466;2023-09-18T14:40:02;6.18;;;4.10;;
35312;SDS011;21425;50.454;30.466;2023-09-18T14:42:28;6.47;;;4.05;;
35312;SDS011;21425;50.454;30.466;2023-09-18T14:44:54;4.97;;;3.70;;